createdAt,value
2023-11-27T00:02:47.224Z,11.30
2023-11-27T00:05:45.441Z,10.90
2023-11-27T00:08:43.553Z,17.55
2023-11-27T00:11:41.742Z,15.70
2023-11-27T00:14:39.878Z,13.70
2023-11-27T00:17:37.825Z,12.18
2023-11-27T00:20:36.052Z,11.48
2023-11-27T00:23:34.249Z,16.13
2023-11-27T00:26:32.297Z,19.38
2023-11-27T00:29:30.258Z,18.92
2023-11-27T00:32:28.423Z,31.25
2023-11-27T00:35:26.593Z,23.42
2023-11-27T00:38:24.601Z,37.38
2023-11-27T00:41:22.654Z,32.67
2023-11-27T00:44:20.732Z,32.88
2023-11-27T00:47:19.336Z,35.92
2023-11-27T00:50:17.446Z,67.68
2023-11-27T00:53:17.980Z,42.88
2023-11-27T00:56:17.572Z,58.88
2023-11-27T00:59:15.485Z,62.30
2023-11-27T01:02:13.703Z,50.90
2023-11-27T01:05:11.786Z,56.88
2023-11-27T01:08:09.837Z,81.30
2023-11-27T01:11:08.172Z,108.22
2023-11-27T01:14:06.241Z,74.05
2023-11-27T01:17:04.280Z,58.15
2023-11-27T01:20:02.532Z,87.07
2023-11-27T01:23:00.611Z,91.32
2023-11-27T01:25:58.655Z,78.28
2023-11-27T01:28:56.644Z,45.75
2023-11-27T01:31:54.702Z,26.35
2023-11-27T01:34:53.792Z,23.95
2023-11-27T01:37:51.863Z,19.88
2023-11-27T01:40:49.913Z,24.02
2023-11-27T01:43:47.828Z,35.25
2023-11-27T01:46:48.164Z,30.27
2023-11-27T01:49:48.200Z,45.10
2023-11-27T01:52:46.283Z,41.75
2023-11-27T01:55:44.347Z,44.08
2023-11-27T01:58:42.508Z,34.00
2023-11-27T02:01:41.688Z,25.92
2023-11-27T02:04:40.016Z,28.70
2023-11-27T02:07:38.345Z,19.20
2023-11-27T02:10:36.520Z,17.85
2023-11-27T02:13:34.838Z,13.98
2023-11-27T02:16:32.970Z,16.35
2023-11-27T02:19:31.250Z,14.50
2023-11-27T02:22:29.356Z,9.43
2023-11-27T02:25:28.613Z,11.73
2023-11-27T02:28:27.025Z,10.82
2023-11-27T02:31:25.250Z,11.13
2023-11-27T02:34:23.425Z,8.13
2023-11-27T02:37:22.088Z,13.77
2023-11-27T02:40:20.663Z,14.50
2023-11-27T02:43:18.622Z,11.35
2023-11-27T02:46:17.193Z,11.77
2023-11-27T02:49:15.328Z,17.38
2023-11-27T02:52:13.563Z,21.00
2023-11-27T02:55:11.577Z,49.05
2023-11-27T02:58:09.972Z,35.97
2023-11-27T03:01:09.562Z,24.60
2023-11-27T03:04:07.744Z,19.92
2023-11-27T03:07:07.279Z,16.88
2023-11-27T03:10:06.339Z,17.92
2023-11-27T03:13:04.728Z,21.33
2023-11-27T03:16:02.700Z,19.98
2023-11-27T03:19:00.830Z,21.38
2023-11-27T03:21:59.107Z,21.35
2023-11-27T03:24:57.194Z,20.13
2023-11-27T03:27:55.245Z,20.23
2023-11-27T03:30:53.637Z,23.17
2023-11-27T03:33:51.718Z,29.10
2023-11-27T03:36:49.705Z,39.92
2023-11-27T03:39:47.831Z,33.55
2023-11-27T03:42:45.799Z,34.20
2023-11-27T03:45:44.067Z,31.30
2023-11-27T03:48:42.032Z,34.83
2023-11-27T03:51:40.184Z,42.22
2023-11-27T03:54:38.130Z,54.55
2023-11-27T03:57:36.697Z,55.40
2023-11-27T04:00:34.770Z,57.80
2023-11-27T04:03:32.970Z,49.90
2023-11-27T04:06:33.567Z,51.25
2023-11-27T04:09:31.619Z,52.97
2023-11-27T04:12:29.560Z,60.60
2023-11-27T04:15:27.626Z,69.43
2023-11-27T04:18:25.582Z,72.93
2023-11-27T04:21:23.694Z,82.97
2023-11-27T04:24:21.646Z,71.18
2023-11-27T04:27:19.673Z,89.70
2023-11-27T04:30:17.695Z,99.70
2023-11-27T04:33:16.543Z,85.90
2023-11-27T04:36:20.233Z,95.00
2023-11-27T04:39:20.250Z,100.07
2023-11-27T04:42:18.293Z,88.70
2023-11-27T04:45:16.487Z,92.43
2023-11-27T04:48:14.444Z,104.72
2023-11-27T04:51:13.240Z,103.25
2023-11-27T04:54:11.288Z,119.45
2023-11-27T04:57:09.335Z,103.25
2023-11-27T05:00:08.014Z,103.85
2023-11-27T05:03:06.198Z,100.70
2023-11-27T05:06:05.369Z,103.13
2023-11-27T05:09:04.787Z,113.18
2023-11-27T05:12:02.781Z,98.90
2023-11-27T05:15:01.117Z,89.15
2023-11-27T05:17:59.505Z,103.55
2023-11-27T05:20:57.565Z,108.20
2023-11-27T05:23:55.509Z,109.65
2023-11-27T05:26:53.550Z,109.55
2023-11-27T05:29:51.583Z,117.72
2023-11-27T05:32:51.108Z,114.47
2023-11-27T05:35:49.075Z,115.32
2023-11-27T05:38:47.182Z,104.65
2023-11-27T05:41:45.134Z,114.50
2023-11-27T05:44:44.199Z,105.82
2023-11-27T05:47:42.525Z,110.70
2023-11-27T05:50:43.362Z,111.78
2023-11-27T05:53:41.410Z,112.60
2023-11-27T05:56:39.509Z,116.18
2023-11-27T05:59:37.572Z,123.20
2023-11-27T06:02:35.487Z,119.80
2023-11-27T06:05:36.829Z,126.40
2023-11-27T06:08:34.878Z,126.32
2023-11-27T06:11:32.966Z,127.13
2023-11-27T06:14:31.101Z,137.15
2023-11-27T06:17:29.307Z,136.65
2023-11-27T06:20:27.524Z,128.35
2023-11-27T06:23:25.591Z,127.85
2023-11-27T06:26:23.657Z,136.27
2023-11-27T06:29:21.988Z,134.43
2023-11-27T06:32:22.461Z,133.77
2023-11-27T06:35:20.576Z,137.65
2023-11-27T06:38:20.831Z,135.48
2023-11-27T06:41:18.932Z,132.90
2023-11-27T06:44:19.893Z,134.25
2023-11-27T06:47:18.950Z,133.02
2023-11-27T06:50:19.397Z,127.03
2023-11-27T06:53:17.696Z,136.65
2023-11-27T06:56:16.551Z,134.40
2023-11-27T06:59:14.678Z,134.60
2023-11-27T07:02:12.848Z,138.18
2023-11-27T07:05:11.240Z,134.45
2023-11-27T07:08:09.740Z,138.95
2023-11-27T07:11:08.706Z,157.25
2023-11-27T07:14:06.782Z,145.10
2023-11-27T07:17:05.474Z,141.07
2023-11-27T07:20:03.730Z,142.48
2023-11-27T07:23:03.170Z,148.45
2023-11-27T07:26:01.096Z,156.77
2023-11-27T07:28:59.128Z,140.48
2023-11-27T07:31:57.153Z,150.52
2023-11-27T07:34:55.288Z,145.68
2023-11-27T07:37:54.268Z,145.55
2023-11-27T07:40:52.525Z,152.43
2023-11-27T07:43:51.342Z,156.07
2023-11-27T07:46:49.449Z,138.52
2023-11-27T07:49:47.523Z,143.75
2023-11-27T07:52:45.557Z,151.30
2023-11-27T07:55:43.663Z,154.15
2023-11-27T07:58:42.989Z,161.23
2023-11-27T08:01:41.019Z,157.27
2023-11-27T08:04:39.245Z,154.07
2023-11-27T08:07:37.497Z,162.68
2023-11-27T08:10:37.832Z,163.85
2023-11-27T08:13:37.464Z,145.85
2023-11-27T08:16:35.802Z,162.13
2023-11-27T08:19:35.117Z,152.88
2023-11-27T08:22:33.138Z,156.65
2023-11-27T08:25:31.671Z,156.38
2023-11-27T08:28:31.821Z,157.55
2023-11-27T08:31:33.308Z,147.10
2023-11-27T08:34:31.293Z,158.63
2023-11-27T08:37:29.470Z,143.82
2023-11-27T08:40:27.593Z,152.60
2023-11-27T08:43:27.016Z,160.20
2023-11-27T08:46:26.429Z,166.65
2023-11-27T08:49:24.501Z,151.55
2023-11-27T08:52:22.619Z,161.32
2023-11-27T08:55:20.753Z,144.80
2023-11-27T08:58:18.967Z,150.40
2023-11-27T09:01:19.485Z,154.15
2023-11-27T09:04:17.844Z,164.52
2023-11-27T09:07:16.751Z,143.40
2023-11-27T09:10:14.892Z,151.23
2023-11-27T09:13:13.888Z,147.80
2023-11-27T09:16:12.911Z,157.75
2023-11-27T09:19:12.710Z,158.93
2023-11-27T09:22:12.153Z,164.52
2023-11-27T09:25:14.769Z,152.00
2023-11-27T09:28:13.197Z,147.40
2023-11-27T09:31:11.367Z,152.07
2023-11-27T09:34:09.784Z,146.90
2023-11-27T09:37:07.806Z,152.80
2023-11-27T09:40:07.203Z,147.95
2023-11-27T09:43:05.261Z,149.25
2023-11-27T09:46:07.705Z,146.45
2023-11-27T09:49:10.571Z,144.77
2023-11-27T09:52:19.330Z,149.70
2023-11-27T09:55:20.562Z,147.77
2023-11-27T09:58:19.217Z,162.60
2023-11-27T10:01:21.229Z,147.25
2023-11-27T10:04:19.739Z,143.38
2023-11-27T10:07:17.677Z,136.45
2023-11-27T10:10:18.685Z,137.30
2023-11-27T10:13:32.638Z,146.38
2023-11-27T10:16:38.869Z,144.63
2023-11-27T10:19:42.250Z,147.27
2023-11-27T10:22:42.164Z,143.65
2023-11-27T10:25:40.302Z,152.23
2023-11-27T10:28:47.702Z,154.98
2023-11-27T10:31:47.726Z,132.70
2023-11-27T10:34:45.885Z,147.35
2023-11-27T10:37:44.483Z,143.63
2023-11-27T10:40:43.138Z,143.95
2023-11-27T10:43:43.538Z,138.65
2023-11-27T10:46:43.198Z,137.98
2023-11-27T10:49:42.687Z,155.40
2023-11-27T10:52:46.125Z,143.57
2023-11-27T10:55:46.393Z,155.55
2023-11-27T10:58:45.280Z,156.18
2023-11-27T11:01:44.820Z,152.88
2023-11-27T11:04:53.368Z,147.52
2023-11-27T11:07:53.941Z,144.63
2023-11-27T11:10:55.093Z,151.95
2023-11-27T11:13:53.476Z,147.35
2023-11-27T11:17:13.453Z,151.95
2023-11-27T11:20:32.331Z,172.57
2023-11-27T11:23:41.987Z,165.55
2023-11-27T11:27:03.106Z,168.82
2023-11-27T11:30:01.182Z,162.45
2023-11-27T11:32:59.473Z,157.07
2023-11-27T11:35:57.489Z,178.80
2023-11-27T11:38:56.664Z,170.30
2023-11-27T11:42:15.652Z,152.40
2023-11-27T11:45:21.206Z,150.07
2023-11-27T11:48:20.663Z,153.07
2023-11-27T11:51:21.949Z,156.98
2023-11-27T11:54:35.828Z,172.55
2023-11-27T11:57:33.901Z,160.90
2023-11-27T12:00:44.925Z,177.27
2023-11-27T12:03:48.341Z,172.52
2023-11-27T12:06:47.466Z,154.48
2023-11-27T12:09:48.687Z,165.38
2023-11-27T12:12:51.001Z,152.18
2023-11-27T12:15:51.683Z,162.02
2023-11-27T12:18:52.620Z,167.83
2023-11-27T12:21:54.121Z,157.82
2023-11-27T12:24:52.673Z,157.77
2023-11-27T12:27:52.747Z,153.43
2023-11-27T12:30:51.797Z,139.45
2023-11-27T12:33:50.418Z,150.13
2023-11-27T12:36:48.996Z,149.85
2023-11-27T12:39:54.342Z,148.13
2023-11-27T12:42:53.967Z,132.32
2023-11-27T12:45:59.494Z,138.70
2023-11-27T12:49:01.883Z,132.88
2023-11-27T12:51:59.940Z,148.40
2023-11-27T12:54:58.026Z,136.52
2023-11-27T12:57:55.954Z,156.90
2023-11-27T13:00:54.173Z,156.35
2023-11-27T13:03:52.187Z,126.55
2023-11-27T13:06:53.114Z,132.88
2023-11-27T13:09:54.338Z,125.68
2023-11-27T13:12:56.454Z,123.18
2023-11-27T13:15:59.523Z,128.73
2023-11-27T13:18:57.719Z,123.60
2023-11-27T13:21:57.058Z,106.95
2023-11-27T13:24:55.459Z,113.25
2023-11-27T13:27:53.451Z,102.72
2023-11-27T13:31:01.728Z,107.82
2023-11-27T13:34:08.661Z,99.80
2023-11-27T13:37:09.968Z,115.28
2023-11-27T13:40:08.517Z,107.85
2023-11-27T13:43:10.079Z,112.85
2023-11-27T13:46:10.748Z,110.60
2023-11-27T13:49:10.358Z,113.82
2023-11-27T13:52:17.550Z,103.20
2023-11-27T13:55:19.419Z,113.22
2023-11-27T13:58:21.012Z,99.53
2023-11-27T14:01:21.103Z,114.65
2023-11-27T14:04:34.570Z,98.68
2023-11-27T14:07:37.059Z,85.82
2023-11-27T14:10:54.936Z,105.30
2023-11-27T14:13:56.136Z,100.65
2023-11-27T14:17:14.318Z,94.50
2023-11-27T14:20:28.438Z,102.35
2023-11-27T14:23:27.487Z,92.05
2023-11-27T14:26:41.673Z,98.07
2023-11-27T14:29:40.367Z,101.00
2023-11-27T14:32:41.084Z,89.57
2023-11-27T14:35:39.320Z,72.95
2023-11-27T14:38:37.423Z,82.03
2023-11-27T14:41:35.382Z,66.82
2023-11-27T14:44:33.511Z,55.83
2023-11-27T14:47:33.157Z,44.25
2023-11-27T14:50:34.431Z,53.88
2023-11-27T14:53:32.365Z,51.05
2023-11-27T14:56:34.526Z,52.35
2023-11-27T14:59:34.493Z,58.22
2023-11-27T15:02:32.799Z,64.82
2023-11-27T15:05:31.257Z,54.90
2023-11-27T15:08:29.364Z,65.15
2023-11-27T15:11:28.717Z,63.05
2023-11-27T15:14:27.796Z,84.78
2023-11-27T15:17:26.140Z,104.13
2023-11-27T15:20:24.679Z,105.20
2023-11-27T15:23:23.377Z,92.75
2023-11-27T15:26:23.824Z,95.72
2023-11-27T15:29:21.871Z,111.57
2023-11-27T15:32:22.017Z,95.95
2023-11-27T15:35:21.504Z,88.43
2023-11-27T15:38:22.176Z,95.07
2023-11-27T15:41:20.135Z,69.03
2023-11-27T15:44:18.769Z,58.92
2023-11-27T15:47:17.431Z,53.40
2023-11-27T15:50:15.614Z,56.92
2023-11-27T15:53:15.469Z,57.22
2023-11-27T15:56:14.567Z,63.42
2023-11-27T15:59:14.862Z,59.67
2023-11-27T16:02:14.070Z,59.67
2023-11-27T16:05:12.338Z,61.45
2023-11-27T16:08:11.879Z,60.55
2023-11-27T16:11:09.998Z,69.32
2023-11-27T16:14:14.563Z,65.72
2023-11-27T16:17:15.342Z,71.25
2023-11-27T16:20:14.701Z,82.88
2023-11-27T16:23:13.100Z,63.42
2023-11-27T16:26:11.780Z,70.10
2023-11-27T16:29:12.397Z,78.03
2023-11-27T16:32:10.677Z,74.82
2023-11-27T16:35:24.658Z,58.33
2023-11-27T16:38:22.892Z,59.00
2023-11-27T16:41:21.824Z,59.10
2023-11-27T16:44:20.316Z,60.67
2023-11-27T16:47:27.695Z,68.60
2023-11-27T16:50:32.373Z,61.00
2023-11-27T16:53:31.164Z,66.15
2023-11-27T16:56:30.447Z,68.00
2023-11-27T16:59:28.501Z,62.17
2023-11-27T17:02:26.892Z,48.38
2023-11-27T17:05:25.220Z,45.17
2023-11-27T17:08:24.944Z,48.10
2023-11-27T17:11:23.143Z,48.35
2023-11-27T17:14:21.269Z,52.53
2023-11-27T17:17:19.371Z,50.22
2023-11-27T17:20:18.607Z,65.10
2023-11-27T17:23:18.679Z,61.42
2023-11-27T17:26:19.629Z,69.60
2023-11-27T17:29:19.319Z,62.53
2023-11-27T17:32:17.369Z,61.97
2023-11-27T17:35:17.267Z,59.90
2023-11-27T17:38:15.459Z,67.38
2023-11-27T17:41:13.447Z,67.50
2023-11-27T17:44:11.660Z,60.53
2023-11-27T17:47:11.680Z,62.00
2023-11-27T17:50:14.792Z,57.10
2023-11-27T17:53:13.578Z,28.63
2023-11-27T17:56:12.239Z,34.92
2023-11-27T17:59:12.308Z,44.50
2023-11-27T18:02:12.078Z,38.78
2023-11-27T18:05:10.519Z,44.53
2023-11-27T18:08:13.656Z,47.30
2023-11-27T18:11:12.975Z,53.42
2023-11-27T18:14:12.217Z,52.53
2023-11-27T18:17:10.389Z,50.83
2023-11-27T18:20:10.591Z,77.80
2023-11-27T18:23:10.991Z,74.47
2023-11-27T18:26:11.190Z,92.85
2023-11-27T18:29:10.664Z,112.00
2023-11-27T18:32:08.863Z,119.65
2023-11-27T18:35:08.243Z,123.75
2023-11-27T18:38:07.036Z,99.97
2023-11-27T18:41:06.300Z,105.50
2023-11-27T18:44:04.269Z,91.85
2023-11-27T18:47:02.465Z,101.78
2023-11-27T18:50:00.454Z,99.45
2023-11-27T18:52:58.627Z,92.43
2023-11-27T18:55:57.032Z,102.57
2023-11-27T18:58:55.263Z,100.97
2023-11-27T19:01:53.461Z,94.05
2023-11-27T19:04:51.835Z,86.82
2023-11-27T19:07:53.504Z,79.38
2023-11-27T19:10:51.721Z,77.38
2023-11-27T19:13:49.816Z,73.70
2023-11-27T19:16:48.037Z,81.75
2023-11-27T19:19:46.115Z,84.80
2023-11-27T19:22:46.844Z,99.35
2023-11-27T19:25:45.973Z,81.75
2023-11-27T19:28:44.209Z,89.85
2023-11-27T19:31:42.380Z,101.65
2023-11-27T19:34:40.594Z,84.45
2023-11-27T19:37:38.801Z,80.72
2023-11-27T19:40:38.243Z,78.57
2023-11-27T19:43:38.389Z,80.97
2023-11-27T19:46:36.714Z,77.28
2023-11-27T19:49:36.892Z,74.47
2023-11-27T19:52:35.074Z,78.13
2023-11-27T19:55:33.545Z,68.43
2023-11-27T19:58:31.785Z,85.43
2023-11-27T20:01:29.846Z,78.55
2023-11-27T20:04:28.050Z,88.15
2023-11-27T20:07:26.049Z,97.65
2023-11-27T20:10:24.772Z,82.28
2023-11-27T20:13:22.910Z,87.65
2023-11-27T20:16:21.581Z,96.88
2023-11-27T20:19:20.985Z,86.60
2023-11-27T20:22:19.235Z,81.60
2023-11-27T20:25:17.421Z,75.43
2023-11-27T20:28:15.791Z,67.40
2023-11-27T20:31:26.259Z,53.65
2023-11-27T20:34:32.557Z,73.85
2023-11-27T20:37:30.844Z,86.95
2023-11-27T20:40:29.078Z,62.25
2023-11-27T20:43:27.598Z,82.28
2023-11-27T20:46:25.793Z,88.45
2023-11-27T20:49:23.891Z,97.20
2023-11-27T20:52:22.498Z,85.38
2023-11-27T20:55:22.282Z,76.00
2023-11-27T20:58:20.484Z,88.88
2023-11-27T21:01:20.258Z,77.88
2023-11-27T21:04:19.168Z,73.50
2023-11-27T21:07:18.694Z,78.60
2023-11-27T21:10:16.873Z,77.63
2023-11-27T21:13:14.887Z,74.90
2023-11-27T21:16:13.055Z,96.68
2023-11-27T21:19:11.039Z,90.22
2023-11-27T21:22:09.209Z,80.95
2023-11-27T21:25:07.701Z,101.75
2023-11-27T21:28:06.618Z,86.22
2023-11-27T21:31:04.900Z,91.90
2023-11-27T21:34:03.073Z,82.90
2023-11-27T21:37:01.074Z,66.53
2023-11-27T21:39:59.161Z,65.68
2023-11-27T21:42:57.454Z,65.85
2023-11-27T21:45:55.690Z,57.28
2023-11-27T21:48:54.122Z,56.58
2023-11-27T21:51:52.313Z,57.08
2023-11-27T21:54:50.615Z,56.67
2023-11-27T21:57:48.711Z,50.17
2023-11-27T22:00:47.582Z,43.20
2023-11-27T22:03:45.883Z,48.15
2023-11-27T22:06:44.072Z,37.70
2023-11-27T22:09:42.327Z,26.15
2023-11-27T22:12:41.238Z,20.52
2023-11-27T22:15:39.374Z,17.40
2023-11-27T22:18:37.344Z,20.48
2023-11-27T22:21:35.944Z,50.85
2023-11-27T22:24:33.918Z,54.88
2023-11-27T22:27:32.197Z,39.08
2023-11-27T22:30:30.168Z,22.98
2023-11-27T22:33:28.356Z,20.05
2023-11-27T22:36:26.387Z,28.30
2023-11-27T22:39:25.485Z,47.80
2023-11-27T22:42:23.445Z,43.67
2023-11-27T22:45:21.595Z,20.65
2023-11-27T22:48:19.717Z,18.45
2023-11-27T22:51:17.718Z,12.85
2023-11-27T22:54:15.764Z,30.25
2023-11-27T22:57:13.852Z,36.35
2023-11-27T23:00:14.377Z,53.78
2023-11-27T23:03:12.716Z,48.67
2023-11-27T23:06:25.184Z,46.70
2023-11-27T23:09:31.054Z,58.95
2023-11-27T23:12:29.078Z,45.17
2023-11-27T23:15:29.039Z,54.60
2023-11-27T23:18:27.132Z,51.80
2023-11-27T23:21:25.687Z,42.40
2023-11-27T23:24:26.865Z,42.75
2023-11-27T23:27:25.485Z,33.78
2023-11-27T23:30:23.535Z,41.67
2023-11-27T23:33:21.662Z,40.15
2023-11-27T23:36:19.832Z,24.98
2023-11-27T23:39:18.508Z,11.70
2023-11-27T23:42:16.536Z,6.30
2023-11-27T23:45:14.703Z,4.70
2023-11-27T23:48:12.746Z,4.82
2023-11-27T23:51:11.783Z,5.22
2023-11-27T23:54:09.766Z,4.72
2023-11-27T23:57:07.890Z,4.22
